Buoy 44906

sailwx.info

Track history (hours):
 
Tides and Currents Weather Stations Pressure Air Temp Water Temp Dewpoint Dewpoint Depression Visibility Wind Speed Wind Dir Waves Ship Positions

Drifting buoy 44906

Last reported at 2018-Feb-24 18:00 UTC. Time now 2018-Feb-24 20:03 UTC.
Position N 36°54' W 028°57'.

Water temperature 17.6 ° C

Date/timePositionNaut miles runAvg speedWind from/ knotsBaromVisibWave heightAir tempDewpointWater temp
2018-Feb-24 18:00N 36°54' W 028°57'0 0.0 17.6
2018-Feb-24 17:00N 36°54' W 028°57'0 0.0 17.6
2018-Feb-24 16:00N 36°54' W 028°57'3 1.4 17.6
2018-Feb-24 14:00N 36°56' W 028°59'2 1.9 17.2
2018-Feb-24 13:00N 36°58' W 028°59'0 0.0 17.2
2018-Feb-24 12:00N 36°58' W 028°59'0 0.0 17.3
2018-Feb-24 11:00N 36°58' W 028°59'2 1.9 17.3
2018-Feb-24 10:00N 37°00' W 029°00'0 0.0 17.3
2018-Feb-24 09:00N 37°00' W 029°00'1 1.4 17.3
2018-Feb-24 08:00N 37°00' W 029°02'1 0.8 17.4
2018-Feb-24 07:00N 37°01' W 029°01'1 0.8 17.4
2018-Feb-24 06:00N 37°01' W 029°02'0 0.0 17.6
2018-Feb-24 05:00N 37°01' W 029°02'2 0.4 17.7
2018-Feb-23 23:00N 37°02' W 028°59'0 0.5 18.0
2018-Feb-23 22:00N 37°02' W 029°00'1 1.1 18.0
2018-Feb-23 21:00N 37°03' W 029°01'0 0.5 18.0
2018-Feb-23 20:00N 37°03' W 029°01'2 1.9 18.0
2018-Feb-23 19:00N 37°05' W 029°01'0 0.0 17.9
2018-Feb-23 18:00N 37°05' W 029°01'0 0.0 17.8
2018-Feb-23 17:00N 37°05' W 029°01'0 0.0 17.6
2018-Feb-23 16:00N 37°05' W 029°01'0 0.0 17.6
2018-Feb-23 15:00N 37°05' W 029°01'3 1.4 17.7
2018-Feb-23 13:00N 37°05' W 029°05'1 1.1 17.6
2018-Feb-23 12:00N 37°04' W 029°04'0 0.0 17.5
2018-Feb-23 11:00N 37°04' W 029°04'2 1.9 17.5
2018-Feb-23 10:00N 37°03' W 029°05'0 0.5 17.4
2018-Feb-23 09:00N 37°03' W 029°06'0 0.0 17.4
2018-Feb-23 08:00N 37°03' W 029°06'0 0.0 17.3
2018-Feb-23 07:00N 37°03' W 029°06'0 0.5 17.3
2018-Feb-23 06:00N 37°03' W 029°07'0 0.0 17.2
2018-Feb-23 05:00N 37°03' W 029°07'2 0.5 17.1
2018-Feb-23 00:00N 37°05' W 029°08'0 0.0 17.1
2018-Feb-22 23:00N 37°05' W 029°08'1 1.3 17.1
2018-Feb-22 22:00N 37°06' W 029°08'1 0.6 17.1
2018-Feb-22 21:00N 37°07' W 029°08'0 0.5 17.1
2018-Feb-22 20:00N 37°07' W 029°07'0 0.0 17.1
2018-Feb-22 19:00N 37°07' W 029°07'3 1.6 17.1
2018-Feb-22 17:00N 37°10' W 029°06'0 0.0 17.0
2018-Feb-22 16:00N 37°10' W 029°06'0 0.0 17.1
2018-Feb-22 15:00N 37°10' W 029°06'4 1.5 17.1
2018-Feb-22 12:00N 37°14' W 029°04'1 1.0 17.1
2018-Feb-22 11:00N 37°14' W 029°05'0 0.0 17.1
2018-Feb-22 10:00N 37°14' W 029°05'1 1.2 17.1
2018-Feb-22 09:00N 37°15' W 029°05'1 0.8 17.1
2018-Feb-22 08:00N 37°16' W 029°05'2 1.6 17.2
2018-Feb-22 07:00N 37°16' W 029°03'3 3.3 17.2
2018-Feb-22 06:00N 37°19' W 029°01'0 0.0 17.2
2018-Feb-22 05:00N 37°19' W 029°01'5 5.4 17.3
2018-Feb-22 04:00N 37°20' W 028°55'5 5.4 17.3
2018-Feb-22 03:00N 37°19' W 029°01'5 1.8 17.3
2018-Feb-22 00:00N 37°20' W 028°55'1 1.4 17.3
2018-Feb-21 23:00N 37°20' W 028°53'2 1.8 17.3
2018-Feb-21 22:00N 37°22' W 028°53'2 1.9 17.4
2018-Feb-21 21:00N 37°21' W 028°51'1 1.2 17.4
2018-Feb-21 20:00N 37°20' W 028°51'0 0.0 17.4
2018-Feb-21 19:00N 37°20' W 028°51'0 0.5 17.4
2018-Feb-21 18:00N 37°20' W 028°52'0 0.0 17.4
2018-Feb-21 17:00N 37°20' W 028°52'1 1.2 17.4
2018-Feb-21 16:00N 37°19' W 028°52'0 0.0 17.3
2018-Feb-21 15:00N 37°19' W 028°52'4 1.2 17.3
2018-Feb-21 12:00N 37°15' W 028°51'1 0.8 17.2
2018-Feb-21 11:00N 37°14' W 028°52'1 0.8 17.1
2018-Feb-21 10:00N 37°14' W 028°51'1 1.1 17.1
2018-Feb-21 09:00N 37°13' W 028°50'0 0.0 17.1
2018-Feb-21 08:00N 37°13' W 028°50'1 1.2 17.1
2018-Feb-21 07:00N 37°12' W 028°50'2 2.0 17.1
2018-Feb-21 06:00N 37°11' W 028°52'0 0.0 17.1
2018-Feb-21 05:00N 37°11' W 028°52'0 0.0 17.1
2018-Feb-21 03:00N 37°11' W 028°52'1 0.3 17.1
2018-Feb-21 00:00N 37°11' W 028°53'0 0.0 17.2
2018-Feb-20 23:00N 37°11' W 028°53'0 0.5 17.2
2018-Feb-20 22:00N 37°11' W 028°53'1 0.8 17.2
2018-Feb-20 21:00N 37°10' W 028°54'1 0.6 17.3
2018-Feb-20 20:00N 37°10' W 028°54'2 2.4 17.5
2018-Feb-20 19:00N 37°07' W 028°55'2 0.9 17.6
2018-Feb-20 17:00N 37°05' W 028°55'3 3.0 17.8
2018-Feb-20 16:00N 37°02' W 028°55'0 0.0 17.8
2018-Feb-20 15:00N 37°02' W 028°55'0 0.0 17.9
2018-Feb-20 11:00N 37°02' W 028°55'1 1.3 18.0
2018-Feb-20 10:00N 37°01' W 028°56'0 0.0 18.0
2018-Feb-20 09:00N 37°01' W 028°56'2 1.9 18.1
2018-Feb-20 08:00N 36°59' W 028°56'0 0.0 18.0
2018-Feb-20 07:00N 36°59' W 028°56'4 3.6 17.9
2018-Feb-20 06:00N 36°56' W 028°56'0 0.0 17.9
2018-Feb-20 04:00N 36°56' W 028°56'2 0.4 18.0
2018-Feb-19 23:00N 36°56' W 028°54'2 0.8 18.0
2018-Feb-19 21:00N 36°56' W 028°56'0 0.5 18.1
2018-Feb-19 20:00N 36°56' W 028°55'1 1.0 18.1
2018-Feb-19 19:00N 36°56' W 028°56'0 0.5 18.1
2018-Feb-19 18:00N 36°56' W 028°56'1 1.0 18.2
2018-Feb-19 17:00N 36°56' W 028°57'0 0.0 18.2
2018-Feb-19 16:00N 36°56' W 028°57'0 0.0 18.2
2018-Feb-19 15:00N 36°56' W 028°57'2 0.9 18.2
2018-Feb-19 13:00N 36°55' W 028°59'1 1.1 18.1
2018-Feb-19 12:00N 36°54' W 028°58'0 0.5 18.0
2018-Feb-19 11:00N 36°54' W 028°57'0 0.5 17.9
2018-Feb-19 10:00N 36°54' W 028°58'0 0.0 17.9
2018-Feb-19 09:00N 36°54' W 028°58'1 0.8 17.9
2018-Feb-19 08:00N 36°55' W 028°58'0 0.0 17.9
2018-Feb-19 07:00N 36°55' W 028°58'1 0.8 17.9
2018-Feb-19 06:00N 36°54' W 028°59'0 0.0 17.9
2018-Feb-19 05:00N 36°54' W 028°59'2 2.0 17.9
2018-Feb-19 04:00N 36°53' W 029°01'1 0.2 17.9
2018-Feb-18 23:00N 36°54' W 029°00'1 0.8 17.9
2018-Feb-18 22:00N 36°53' W 029°01'1 0.6 17.9
2018-Feb-18 21:00N 36°54' W 029°01'0 0.0 17.9
2018-Feb-18 20:00N 36°54' W 029°01'1 0.6 18.0
2018-Feb-18 19:00N 36°53' W 029°01'1 0.6 18.0
2018-Feb-18 18:00N 36°54' W 029°01'0 0.0 18.0
2018-Feb-18 17:00N 36°54' W 029°01'0 0.0 18.0
2018-Feb-18 16:00N 36°54' W 029°01'1 0.4 18.0
2018-Feb-18 13:00N 36°55' W 029°01'1 0.8 17.9
2018-Feb-18 12:00N 36°55' W 029°01'0 0.0 17.9
2018-Feb-18 11:00N 36°55' W 029°01'0 0.0 17.8
2018-Feb-18 10:00N 36°55' W 029°01'0 0.5 17.8
2018-Feb-18 09:00N 36°55' W 029°01'1 0.8 17.7
2018-Feb-18 08:00N 36°54' W 029°01'0 0.0 17.7
2018-Feb-18 07:00N 36°54' W 029°01'0 0.0 17.7
2018-Feb-18 06:00N 36°54' W 029°01'4 3.9 17.7
2018-Feb-18 05:00N 36°50' W 029°02'0 0.0 17.7
2018-Feb-18 04:00N 36°50' W 029°02'0 0.0 17.8
2018-Feb-18 00:00N 36°50' W 029°02'0 0.0 18.0
2018-Feb-17 23:00N 36°50' W 029°02'1 0.6 18.0
2018-Feb-17 22:00N 36°50' W 029°02'1 1.0 17.8
2018-Feb-17 21:00N 36°50' W 029°04'1 1.1 17.7
2018-Feb-17 20:00N 36°49' W 029°02'0 0.5 17.7
2018-Feb-17 19:00N 36°49' W 029°02'0 0.5 17.8
2018-Feb-17 18:00N 36°49' W 029°02'0 0.0 17.8
2018-Feb-17 17:00N 36°49' W 029°02'0 0.5 17.7
2018-Feb-17 16:00N 36°49' W 029°02'2 0.5 17.9
2018-Feb-17 12:00N 36°47' W 029°01'1 0.8 18.1
2018-Feb-17 11:00N 36°48' W 029°01'1 1.3 18.1
2018-Feb-17 10:00N 36°47' W 029°02'1 0.6 18.1
2018-Feb-17 09:00N 36°46' W 029°02'1 1.4 18.1
2018-Feb-17 08:00N 36°46' W 029°00'0 0.5 18.2
2018-Feb-17 07:00N 36°46' W 029°01'0 0.5 18.2
2018-Feb-17 06:00N 36°46' W 029°00'0 0.5 18.2
2018-Feb-17 05:00N 36°46' W 028°59'1 0.1 18.2
2018-Feb-16 23:00N 36°46' W 029°00'1 0.8 18.2
2018-Feb-16 22:00N 36°46' W 028°59'1 0.6 18.3
2018-Feb-16 21:00N 36°46' W 028°59'1 0.8 18.3
2018-Feb-16 20:00N 36°46' W 028°59'0 0.0 18.3
2018-Feb-16 19:00N 36°46' W 028°59'1 0.6 18.2
2018-Feb-16 18:00N 36°47' W 028°59'2 2.0 18.1
2018-Feb-16 17:00N 36°49' W 028°58'2 2.0 18.1
2018-Feb-16 16:00N 36°47' W 028°59'2 2.0 18.2
2018-Feb-16 15:00N 36°49' W 028°58'1 0.3 18.2
2018-Feb-16 12:00N 36°49' W 028°57'0 0.5 18.2
2018-Feb-16 11:00N 36°49' W 028°58'0 0.0 18.2
2018-Feb-16 10:00N 36°49' W 028°58'0 0.5 18.1
2018-Feb-16 09:00N 36°49' W 028°57'1 0.8 18.1
2018-Feb-16 08:00N 36°50' W 028°56'1 0.6 18.2
2018-Feb-16 07:00N 36°50' W 028°56'0 0.0 18.2
2018-Feb-16 06:00N 36°50' W 028°56'0 0.5 18.1
2018-Feb-16 05:00N 36°50' W 028°56'0 0.0 18.1
2018-Feb-16 04:00N 36°50' W 028°56'4 1.0 18.0
2018-Feb-16 00:00N 36°54' W 028°58'1 0.8 18.1
2018-Feb-15 23:00N 36°55' W 028°58'0 0.0 18.1
2018-Feb-15 22:00N 36°55' W 028°58'1 1.3 18.1
2018-Feb-15 21:00N 36°56' W 028°58'1 0.8 18.1
2018-Feb-15 20:00N 36°56' W 028°58'1 0.6 18.1
2018-Feb-15 19:00N 36°56' W 028°58'3 2.6 18.1
2018-Feb-15 18:00N 36°58' W 028°57'0 0.0 18.1
2018-Feb-15 17:00N 36°58' W 028°57'0 0.0 18.1
2018-Feb-15 16:00N 36°58' W 028°57'0 0.1 18.2
2018-Feb-15 12:00N 36°58' W 028°58'2 1.6 18.1
2018-Feb-15 11:00N 36°59' W 028°56'0 0.0 18.1
2018-Feb-15 10:00N 36°59' W 028°56'0 0.0 18.2
2018-Feb-15 09:00N 36°59' W 028°56'0 0.0 18.2
2018-Feb-15 08:00N 36°59' W 028°56'2 2.0 18.2
2018-Feb-15 07:00N 36°59' W 028°53'0 0.5 18.2
2018-Feb-15 06:00N 36°59' W 028°54'3 2.8 18.3
2018-Feb-15 05:00N 37°02' W 028°52'0 0.0 18.3
2018-Feb-15 00:00N 37°02' W 028°52'1 0.8 18.5
2018-Feb-14 23:00N 37°02' W 028°52'1 0.8 18.5
2018-Feb-14 22:00N 37°03' W 028°51'2 1.9 18.5
2018-Feb-14 21:00N 37°04' W 028°53'1 1.1 18.5
2018-Feb-14 20:00N 37°04' W 028°52'2 1.6 18.5
2018-Feb-14 19:00N 37°04' W 028°53'0 0.0 18.5
2018-Feb-14 18:00N 37°04' W 028°53'   18.5
Track history (hours):
 
Tides and Currents Weather Stations Pressure Air Temp Water Temp Dewpoint Dewpoint Depression Visibility Wind Speed Wind Dir Waves Ship Positions

Drifting buoy 44906

Last reported at 2018-Feb-24 18:00 UTC. Time now 2018-Feb-24 20:03 UTC.
Position N 36°54' W 028°57'.

Water temperature 17.6 ° C

Date/timePositionNaut miles runAvg speedWind from/ knotsBaromVisibWave heightAir tempDewpointWater temp
2018-Feb-24 18:00N 36°54' W 028°57'0 0.0 17.6
2018-Feb-24 17:00N 36°54' W 028°57'0 0.0 17.6
2018-Feb-24 16:00N 36°54' W 028°57'3 1.4 17.6
2018-Feb-24 14:00N 36°56' W 028°59'2 1.9 17.2
2018-Feb-24 13:00N 36°58' W 028°59'0 0.0 17.2
2018-Feb-24 12:00N 36°58' W 028°59'0 0.0 17.3
2018-Feb-24 11:00N 36°58' W 028°59'2 1.9 17.3
2018-Feb-24 10:00N 37°00' W 029°00'0 0.0 17.3
2018-Feb-24 09:00N 37°00' W 029°00'1 1.4 17.3
2018-Feb-24 08:00N 37°00' W 029°02'1 0.8 17.4
2018-Feb-24 07:00N 37°01' W 029°01'1 0.8 17.4
2018-Feb-24 06:00N 37°01' W 029°02'0 0.0 17.6
2018-Feb-24 05:00N 37°01' W 029°02'2 0.4 17.7
2018-Feb-23 23:00N 37°02' W 028°59'0 0.5 18.0
2018-Feb-23 22:00N 37°02' W 029°00'1 1.1 18.0
2018-Feb-23 21:00N 37°03' W 029°01'0 0.5 18.0
2018-Feb-23 20:00N 37°03' W 029°01'2 1.9 18.0
2018-Feb-23 19:00N 37°05' W 029°01'0 0.0 17.9
2018-Feb-23 18:00N 37°05' W 029°01'0 0.0 17.8
2018-Feb-23 17:00N 37°05' W 029°01'0 0.0 17.6
2018-Feb-23 16:00N 37°05' W 029°01'0 0.0 17.6
2018-Feb-23 15:00N 37°05' W 029°01'3 1.4 17.7
2018-Feb-23 13:00N 37°05' W 029°05'1 1.1 17.6
2018-Feb-23 12:00N 37°04' W 029°04'0 0.0 17.5
2018-Feb-23 11:00N 37°04' W 029°04'2 1.9 17.5
2018-Feb-23 10:00N 37°03' W 029°05'0 0.5 17.4
2018-Feb-23 09:00N 37°03' W 029°06'0 0.0 17.4
2018-Feb-23 08:00N 37°03' W 029°06'0 0.0 17.3
2018-Feb-23 07:00N 37°03' W 029°06'0 0.5 17.3
2018-Feb-23 06:00N 37°03' W 029°07'0 0.0 17.2
2018-Feb-23 05:00N 37°03' W 029°07'2 0.5 17.1
2018-Feb-23 00:00N 37°05' W 029°08'0 0.0 17.1
2018-Feb-22 23:00N 37°05' W 029°08'1 1.3 17.1
2018-Feb-22 22:00N 37°06' W 029°08'1 0.6 17.1
2018-Feb-22 21:00N 37°07' W 029°08'0 0.5 17.1
2018-Feb-22 20:00N 37°07' W 029°07'0 0.0 17.1
2018-Feb-22 19:00N 37°07' W 029°07'3 1.6 17.1
2018-Feb-22 17:00N 37°10' W 029°06'0 0.0 17.0
2018-Feb-22 16:00N 37°10' W 029°06'0 0.0 17.1
2018-Feb-22 15:00N 37°10' W 029°06'4 1.5 17.1
2018-Feb-22 12:00N 37°14' W 029°04'1 1.0 17.1
2018-Feb-22 11:00N 37°14' W 029°05'0 0.0 17.1
2018-Feb-22 10:00N 37°14' W 029°05'1 1.2 17.1
2018-Feb-22 09:00N 37°15' W 029°05'1 0.8 17.1
2018-Feb-22 08:00N 37°16' W 029°05'2 1.6 17.2
2018-Feb-22 07:00N 37°16' W 029°03'3 3.3 17.2
2018-Feb-22 06:00N 37°19' W 029°01'0 0.0 17.2
2018-Feb-22 05:00N 37°19' W 029°01'5 5.4 17.3
2018-Feb-22 04:00N 37°20' W 028°55'5 5.4 17.3
2018-Feb-22 03:00N 37°19' W 029°01'5 1.8 17.3
2018-Feb-22 00:00N 37°20' W 028°55'1 1.4 17.3
2018-Feb-21 23:00N 37°20' W 028°53'2 1.8 17.3
2018-Feb-21 22:00N 37°22' W 028°53'2 1.9 17.4
2018-Feb-21 21:00N 37°21' W 028°51'1 1.2 17.4
2018-Feb-21 20:00N 37°20' W 028°51'0 0.0 17.4
2018-Feb-21 19:00N 37°20' W 028°51'0 0.5 17.4
2018-Feb-21 18:00N 37°20' W 028°52'0 0.0 17.4
2018-Feb-21 17:00N 37°20' W 028°52'1 1.2 17.4
2018-Feb-21 16:00N 37°19' W 028°52'0 0.0 17.3
2018-Feb-21 15:00N 37°19' W 028°52'4 1.2 17.3
2018-Feb-21 12:00N 37°15' W 028°51'1 0.8 17.2
2018-Feb-21 11:00N 37°14' W 028°52'1 0.8 17.1
2018-Feb-21 10:00N 37°14' W 028°51'1 1.1 17.1
2018-Feb-21 09:00N 37°13' W 028°50'0 0.0 17.1
2018-Feb-21 08:00N 37°13' W 028°50'1 1.2 17.1
2018-Feb-21 07:00N 37°12' W 028°50'2 2.0 17.1
2018-Feb-21 06:00N 37°11' W 028°52'0 0.0 17.1
2018-Feb-21 05:00N 37°11' W 028°52'0 0.0 17.1
2018-Feb-21 03:00N 37°11' W 028°52'1 0.3 17.1
2018-Feb-21 00:00N 37°11' W 028°53'0 0.0 17.2
2018-Feb-20 23:00N 37°11' W 028°53'0 0.5 17.2
2018-Feb-20 22:00N 37°11' W 028°53'1 0.8 17.2
2018-Feb-20 21:00N 37°10' W 028°54'1 0.6 17.3
2018-Feb-20 20:00N 37°10' W 028°54'2 2.4 17.5
2018-Feb-20 19:00N 37°07' W 028°55'2 0.9 17.6
2018-Feb-20 17:00N 37°05' W 028°55'3 3.0 17.8
2018-Feb-20 16:00N 37°02' W 028°55'0 0.0 17.8
2018-Feb-20 15:00N 37°02' W 028°55'0 0.0 17.9
2018-Feb-20 11:00N 37°02' W 028°55'1 1.3 18.0
2018-Feb-20 10:00N 37°01' W 028°56'0 0.0 18.0
2018-Feb-20 09:00N 37°01' W 028°56'2 1.9 18.1
2018-Feb-20 08:00N 36°59' W 028°56'0 0.0 18.0
2018-Feb-20 07:00N 36°59' W 028°56'4 3.6 17.9
2018-Feb-20 06:00N 36°56' W 028°56'0 0.0 17.9
2018-Feb-20 04:00N 36°56' W 028°56'2 0.4 18.0
2018-Feb-19 23:00N 36°56' W 028°54'2 0.8 18.0
2018-Feb-19 21:00N 36°56' W 028°56'0 0.5 18.1
2018-Feb-19 20:00N 36°56' W 028°55'1 1.0 18.1
2018-Feb-19 19:00N 36°56' W 028°56'0 0.5 18.1
2018-Feb-19 18:00N 36°56' W 028°56'1 1.0 18.2
2018-Feb-19 17:00N 36°56' W 028°57'0 0.0 18.2
2018-Feb-19 16:00N 36°56' W 028°57'0 0.0 18.2
2018-Feb-19 15:00N 36°56' W 028°57'2 0.9 18.2
2018-Feb-19 13:00N 36°55' W 028°59'1 1.1 18.1
2018-Feb-19 12:00N 36°54' W 028°58'0 0.5 18.0
2018-Feb-19 11:00N 36°54' W 028°57'0 0.5 17.9
2018-Feb-19 10:00N 36°54' W 028°58'0 0.0 17.9
2018-Feb-19 09:00N 36°54' W 028°58'1 0.8 17.9
2018-Feb-19 08:00N 36°55' W 028°58'0 0.0 17.9
2018-Feb-19 07:00N 36°55' W 028°58'1 0.8 17.9
2018-Feb-19 06:00N 36°54' W 028°59'0 0.0 17.9
2018-Feb-19 05:00N 36°54' W 028°59'2 2.0 17.9
2018-Feb-19 04:00N 36°53' W 029°01'1 0.2 17.9
2018-Feb-18 23:00N 36°54' W 029°00'1 0.8 17.9
2018-Feb-18 22:00N 36°53' W 029°01'1 0.6 17.9
2018-Feb-18 21:00N 36°54' W 029°01'0 0.0 17.9
2018-Feb-18 20:00N 36°54' W 029°01'1 0.6 18.0
2018-Feb-18 19:00N 36°53' W 029°01'1 0.6 18.0
2018-Feb-18 18:00N 36°54' W 029°01'0 0.0 18.0
2018-Feb-18 17:00N 36°54' W 029°01'0 0.0 18.0
2018-Feb-18 16:00N 36°54' W 029°01'1 0.4 18.0
2018-Feb-18 13:00N 36°55' W 029°01'1 0.8 17.9
2018-Feb-18 12:00N 36°55' W 029°01'0 0.0 17.9
2018-Feb-18 11:00N 36°55' W 029°01'0 0.0 17.8
2018-Feb-18 10:00N 36°55' W 029°01'0 0.5 17.8
2018-Feb-18 09:00N 36°55' W 029°01'1 0.8 17.7
2018-Feb-18 08:00N 36°54' W 029°01'0 0.0 17.7
2018-Feb-18 07:00N 36°54' W 029°01'0 0.0 17.7
2018-Feb-18 06:00N 36°54' W 029°01'4 3.9 17.7
2018-Feb-18 05:00N 36°50' W 029°02'0 0.0 17.7
2018-Feb-18 04:00N 36°50' W 029°02'0 0.0 17.8
2018-Feb-18 00:00N 36°50' W 029°02'0 0.0 18.0
2018-Feb-17 23:00N 36°50' W 029°02'1 0.6 18.0
2018-Feb-17 22:00N 36°50' W 029°02'1 1.0 17.8
2018-Feb-17 21:00N 36°50' W 029°04'1 1.1 17.7
2018-Feb-17 20:00N 36°49' W 029°02'0 0.5 17.7
2018-Feb-17 19:00N 36°49' W 029°02'0 0.5 17.8
2018-Feb-17 18:00N 36°49' W 029°02'0 0.0 17.8
2018-Feb-17 17:00N 36°49' W 029°02'0 0.5 17.7
2018-Feb-17 16:00N 36°49' W 029°02'2 0.5 17.9
2018-Feb-17 12:00N 36°47' W 029°01'1 0.8 18.1
2018-Feb-17 11:00N 36°48' W 029°01'1 1.3 18.1
2018-Feb-17 10:00N 36°47' W 029°02'1 0.6 18.1
2018-Feb-17 09:00N 36°46' W 029°02'1 1.4 18.1
2018-Feb-17 08:00N 36°46' W 029°00'0 0.5 18.2
2018-Feb-17 07:00N 36°46' W 029°01'0 0.5 18.2
2018-Feb-17 06:00N 36°46' W 029°00'0 0.5 18.2
2018-Feb-17 05:00N 36°46' W 028°59'1 0.1 18.2
2018-Feb-16 23:00N 36°46' W 029°00'1 0.8 18.2
2018-Feb-16 22:00N 36°46' W 028°59'1 0.6 18.3
2018-Feb-16 21:00N 36°46' W 028°59'1 0.8 18.3
2018-Feb-16 20:00N 36°46' W 028°59'0 0.0 18.3
2018-Feb-16 19:00N 36°46' W 028°59'1 0.6 18.2
2018-Feb-16 18:00N 36°47' W 028°59'2 2.0 18.1
2018-Feb-16 17:00N 36°49' W 028°58'2 2.0 18.1
2018-Feb-16 16:00N 36°47' W 028°59'2 2.0 18.2
2018-Feb-16 15:00N 36°49' W 028°58'1 0.3 18.2
2018-Feb-16 12:00N 36°49' W 028°57'0 0.5 18.2
2018-Feb-16 11:00N 36°49' W 028°58'0 0.0 18.2
2018-Feb-16 10:00N 36°49' W 028°58'0 0.5 18.1
2018-Feb-16 09:00N 36°49' W 028°57'1 0.8 18.1
2018-Feb-16 08:00N 36°50' W 028°56'1 0.6 18.2
2018-Feb-16 07:00N 36°50' W 028°56'0 0.0 18.2
2018-Feb-16 06:00N 36°50' W 028°56'0 0.5 18.1
2018-Feb-16 05:00N 36°50' W 028°56'0 0.0 18.1
2018-Feb-16 04:00N 36°50' W 028°56'4 1.0 18.0
2018-Feb-16 00:00N 36°54' W 028°58'1 0.8 18.1
2018-Feb-15 23:00N 36°55' W 028°58'0 0.0 18.1
2018-Feb-15 22:00N 36°55' W 028°58'1 1.3 18.1
2018-Feb-15 21:00N 36°56' W 028°58'1 0.8 18.1
2018-Feb-15 20:00N 36°56' W 028°58'1 0.6 18.1
2018-Feb-15 19:00N 36°56' W 028°58'3 2.6 18.1
2018-Feb-15 18:00N 36°58' W 028°57'0 0.0 18.1
2018-Feb-15 17:00N 36°58' W 028°57'0 0.0 18.1
2018-Feb-15 16:00N 36°58' W 028°57'0 0.1 18.2
2018-Feb-15 12:00N 36°58' W 028°58'2 1.6 18.1
2018-Feb-15 11:00N 36°59' W 028°56'0 0.0 18.1
2018-Feb-15 10:00N 36°59' W 028°56'0 0.0 18.2
2018-Feb-15 09:00N 36°59' W 028°56'0 0.0 18.2
2018-Feb-15 08:00N 36°59' W 028°56'2 2.0 18.2
2018-Feb-15 07:00N 36°59' W 028°53'0 0.5 18.2
2018-Feb-15 06:00N 36°59' W 028°54'3 2.8 18.3
2018-Feb-15 05:00N 37°02' W 028°52'0 0.0 18.3
2018-Feb-15 00:00N 37°02' W 028°52'1 0.8 18.5
2018-Feb-14 23:00N 37°02' W 028°52'1 0.8 18.5
2018-Feb-14 22:00N 37°03' W 028°51'2 1.9 18.5
2018-Feb-14 21:00N 37°04' W 028°53'1 1.1 18.5
2018-Feb-14 20:00N 37°04' W 028°52'2 1.6 18.5
2018-Feb-14 19:00N 37°04' W 028°53'0 0.0 18.5
2018-Feb-14 18:00N 37°04' W 028°53'   18.5

Dump ship's entire track history